Time;durP1;ratioP1;P1;durP2;ratioP2;P2;SDS_P1;SDS_P2;PMS_P1;PMS_P2;Temp;Humidity;BMP_temperature;BMP_pressure;BME280_temperature;BME280_humidity;BME280_pressure;Samples;Min_cycle;Max_cycle;Signal;HPM_P1;HPM_P2
2021/10/30 00:00:37;;;;;;;18.13;16.27;;;8.60;65.60;;;;;;5033703;28;20415;-83
2021/10/30 00:03:02;;;;;;;19.23;17.33;;;8.60;65.60;;;;;;5034767;28;20176;-83
2021/10/30 00:05:28;;;;;;;18.80;16.90;;;8.60;65.00;;;;;;5033270;28;20181;-83
2021/10/30 00:07:54;;;;;;;21.60;16.40;;;8.60;64.80;;;;;;5032996;28;20231;-83
2021/10/30 00:10:20;;;;;;;18.67;16.77;;;8.50;65.50;;;;;;5034010;28;20211;-83
2021/10/30 00:12:46;;;;;;;18.90;16.93;;;8.40;65.50;;;;;;5034917;28;20503;-82
2021/10/30 00:15:12;;;;;;;17.93;15.90;;;8.40;66.30;;;;;;5035330;28;20179;-83
2021/10/30 00:17:38;;;;;;;16.93;15.23;;;8.50;66.30;;;;;;5033361;28;20181;-82
2021/10/30 00:20:04;;;;;;;17.60;14.67;;;8.40;65.10;;;;;;5033659;28;20466;-82
2021/10/30 00:22:31;;;;;;;18.13;15.40;;;8.30;65.50;;;;;;5033162;28;20420;-83
2021/10/30 00:24:57;;;;;;;17.87;16.03;;;8.30;65.60;;;;;;5033031;28;20411;-83
2021/10/30 00:27:23;;;;;;;19.90;15.77;;;8.40;66.10;;;;;;5032994;28;20426;-84
2021/10/30 00:29:48;;;;;;;17.53;14.77;;;8.30;65.60;;;;;;5034428;28;20200;-83
2021/10/30 00:32:14;;;;;;;17.33;15.50;;;8.30;65.60;;;;;;5033172;28;20191;-84
2021/10/30 00:34:40;;;;;;;19.07;17.17;;;8.30;65.40;;;;;;5034380;28;20180;-83
2021/10/30 00:37:05;;;;;;;19.60;17.03;;;8.30;65.70;;;;;;5033122;28;20223;-83
2021/10/30 00:39:31;;;;;;;19.10;16.30;;;8.30;65.90;;;;;;5032805;28;20207;-82
2021/10/30 00:41:57;;;;;;;16.33;14.67;;;8.30;65.60;;;;;;5034172;28;20172;-82
2021/10/30 00:44:23;;;;;;;17.40;15.67;;;8.30;65.70;;;;;;5032585;28;20276;-83
2021/10/30 00:46:51;;;;;;;18.33;16.50;;;8.30;65.60;;;;;;5032908;28;20451;-83
2021/10/30 00:49:18;;;;;;;17.43;15.53;;;8.30;66.30;;;;;;5032672;28;20424;-83
2021/10/30 00:51:47;;;;;;;18.03;15.53;;;8.20;66.00;;;;;;5034215;28;20424;-83
2021/10/30 00:54:14;;;;;;;17.67;15.87;;;8.20;66.10;;;;;;5032478;28;20995;-83
2021/10/30 00:56:42;;;;;;;16.57;14.77;;;8.20;65.90;;;;;;5032238;28;20434;-84
2021/10/30 00:59:12;;;;;;;16.30;14.80;;;8.10;65.40;;;;;;5033589;28;20612;-83
2021/10/30 01:01:39;;;;;;;18.10;14.93;;;8.20;66.60;;;;;;5032154;28;20423;-83
2021/10/30 01:04:05;;;;;;;18.20;16.30;;;8.10;66.20;;;;;;5031352;28;20416;-83
2021/10/30 01:06:36;;;;;;;16.63;14.93;;;8.20;65.50;;;;;;5032573;28;20434;-83
2021/10/30 01:09:05;;;;;;;18.40;15.70;;;8.10;66.50;;;;;;5033599;28;20419;-83
2021/10/30 01:11:31;;;;;;;17.83;16.07;;;8.10;66.30;;;;;;5032339;28;20420;-83
2021/10/30 01:13:58;;;;;;;15.87;14.30;;;8.00;65.10;;;;;;5032693;28;20415;-83
2021/10/30 01:16:24;;;;;;;16.93;15.23;;;8.10;66.20;;;;;;5033361;28;20837;-83
2021/10/30 01:18:50;;;;;;;16.67;14.97;;;8.10;65.20;;;;;;5032092;28;20562;-83
2021/10/30 01:21:33;;;;;;;16.17;14.40;;;8.00;65.10;;;;;;5032677;28;20945;-83
2021/10/30 01:24:00;;;;;;;15.53;14.13;;;7.90;65.20;;;;;;5032482;28;20911;-83
2021/10/30 01:26:25;;;;;;;14.93;13.53;;;7.90;65.40;;;;;;5032684;28;20412;-83
2021/10/30 01:28:52;;;;;;;14.63;13.23;;;7.90;66.00;;;;;;5032077;28;20767;-83
2021/10/30 01:31:22;;;;;;;16.00;14.50;;;7.90;66.10;;;;;;5031879;28;20477;-82
2021/10/30 01:33:51;;;;;;;14.27;12.90;;;7.90;66.00;;;;;;5032257;28;20520;-83
2021/10/30 01:36:20;;;;;;;14.97;13.57;;;7.80;65.40;;;;;;5032291;28;20454;-83
2021/10/30 01:38:46;;;;;;;15.67;14.00;;;7.90;65.10;;;;;;5032217;28;20467;-83
2021/10/30 01:41:13;;;;;;;17.03;15.27;;;8.00;65.00;;;;;;5031766;28;20973;-83
2021/10/30 01:43:39;;;;;;;15.80;14.27;;;7.90;65.10;;;;;;5031904;28;20477;-83
2021/10/30 01:46:06;;;;;;;17.83;15.37;;;7.90;64.80;;;;;;5031433;28;20407;-83
2021/10/30 01:48:33;;;;;;;16.37;14.70;;;7.80;64.30;;;;;;5031676;28;20431;-83
2021/10/30 01:51:00;;;;;;;15.70;14.20;;;7.80;65.00;;;;;;5031392;28;20419;-82
2021/10/30 01:53:25;;;;;;;15.37;13.90;;;7.70;65.30;;;;;;5031777;28;20466;-83
2021/10/30 01:55:51;;;;;;;15.13;13.67;;;7.70;65.20;;;;;;5031280;28;20447;-84
2021/10/30 01:58:18;;;;;;;16.10;14.50;;;7.70;65.20;;;;;;5031345;28;20618;-85
2021/10/30 02:00:45;;;;;;;16.43;14.83;;;7.80;65.10;;;;;;5033013;28;20411;-83
2021/10/30 02:03:11;;;;;;;14.20;12.87;;;7.70;65.30;;;;;;5031216;28;20422;-83
2021/10/30 02:05:37;;;;;;;15.60;14.10;;;7.70;65.30;;;;;;5032453;28;20418;-83
2021/10/30 02:08:03;;;;;;;15.07;13.57;;;7.80;65.10;;;;;;5032379;28;20179;-83
2021/10/30 02:10:29;;;;;;;15.63;14.07;;;7.70;65.10;;;;;;5031176;28;20235;-84
2021/10/30 02:12:56;;;;;;;15.87;14.27;;;7.80;64.50;;;;;;5031206;28;20911;-84
2021/10/30 02:15:22;;;;;;;17.30;15.60;;;7.70;64.30;;;;;;5030874;28;20188;-83
2021/10/30 02:17:48;;;;;;;17.53;15.80;;;7.70;64.90;;;;;;5030877;28;20733;-82
2021/10/30 02:20:13;;;;;;;16.63;15.10;;;7.70;64.80;;;;;;5030976;28;20222;-82
2021/10/30 02:22:39;;;;;;;16.83;14.10;;;7.70;64.70;;;;;;5030871;28;20179;-83
2021/10/30 02:25:06;;;;;;;15.53;14.03;;;7.70;64.60;;;;;;5031010;28;20186;-83
2021/10/30 02:27:32;;;;;;;16.03;14.63;;;7.70;65.00;;;;;;5030736;28;20187;-82
2021/10/30 02:29:58;;;;;;;15.47;13.97;;;7.70;65.40;;;;;;5031128;28;20427;-83
2021/10/30 02:32:24;;;;;;;15.70;14.10;;;7.70;65.40;;;;;;5030705;28;20184;-82
2021/10/30 02:34:49;;;;;;;15.47;14.00;;;7.70;64.50;;;;;;5031236;28;20530;-83
2021/10/30 02:37:15;;;;;;;14.07;12.80;;;7.70;64.00;;;;;;5030500;28;20180;-83
2021/10/30 02:39:41;;;;;;;16.10;14.13;;;7.70;64.00;;;;;;5030618;28;20204;-83
2021/10/30 02:42:06;;;;;;;15.37;13.83;;;7.70;64.20;;;;;;5030634;28;20571;-84
2021/10/30 02:44:33;;;;;;;16.50;13.60;;;7.70;64.20;;;;;;5030816;28;20186;-83
2021/10/30 02:46:59;;;;;;;15.07;13.63;;;7.70;64.20;;;;;;5030556;28;20576;-84
2021/10/30 02:49:25;;;;;;;14.70;13.27;;;7.70;64.50;;;;;;5030851;28;20423;-84
2021/10/30 02:51:50;;;;;;;16.77;15.07;;;7.70;63.80;;;;;;5030792;28;20187;-84
2021/10/30 02:54:16;;;;;;;14.97;13.50;;;7.70;65.00;;;;;;5030401;28;20241;-84
2021/10/30 02:56:42;;;;;;;15.27;13.60;;;7.60;65.00;;;;;;5030648;28;20223;-84
2021/10/30 02:59:07;;;;;;;16.00;14.40;;;7.60;64.70;;;;;;5030622;28;20211;-83
2021/10/30 03:01:34;;;;;;;15.10;13.70;;;7.50;64.70;;;;;;5030911;28;20183;-83
2021/10/30 03:03:59;;;;;;;14.37;12.93;;;7.50;64.90;;;;;;5030889;28;20180;-84
2021/10/30 03:06:26;;;;;;;15.00;13.60;;;7.50;64.90;;;;;;5030733;28;20756;-84
2021/10/30 03:08:52;;;;;;;16.00;14.30;;;7.50;65.20;;;;;;5031880;28;20288;-83
2021/10/30 03:11:18;;;;;;;14.70;13.30;;;7.50;64.90;;;;;;5030457;28;20469;-84
2021/10/30 03:13:45;;;;;;;15.27;13.80;;;7.40;64.80;;;;;;5030561;28;20433;-84
2021/10/30 03:16:11;;;;;;;14.70;13.20;;;7.40;64.80;;;;;;5030828;28;20426;-84
2021/10/30 03:18:37;;;;;;;14.93;13.23;;;7.40;65.40;;;;;;5029948;28;20442;-84
2021/10/30 03:21:02;;;;;;;15.03;13.57;;;7.50;64.50;;;;;;5030796;28;20264;-84
2021/10/30 03:23:28;;;;;;;15.13;13.73;;;7.50;64.00;;;;;;5030547;28;20211;-85
2021/10/30 03:25:54;;;;;;;15.17;13.87;;;7.50;64.40;;;;;;5031945;28;20772;-84
2021/10/30 03:28:20;;;;;;;14.63;13.23;;;7.50;63.30;;;;;;5034201;28;20255;-83
2021/10/30 03:30:45;;;;;;;14.90;13.50;;;7.50;63.30;;;;;;5034174;28;20187;-84
2021/10/30 03:33:11;;;;;;;15.00;13.50;;;7.50;63.20;;;;;;5034147;28;20178;-84
2021/10/30 03:35:38;;;;;;;15.73;14.23;;;7.50;62.90;;;;;;5034432;28;20189;-84
2021/10/30 03:38:04;;;;;;;14.90;13.30;;;7.40;62.50;;;;;;5033994;28;20433;-84
2021/10/30 03:40:29;;;;;;;13.67;12.40;;;7.40;62.90;;;;;;5035239;28;20458;-84
2021/10/30 03:42:55;;;;;;;14.27;12.77;;;7.20;63.30;;;;;;5034042;28;20426;-84
2021/10/30 03:45:21;;;;;;;15.60;14.00;;;7.30;63.40;;;;;;5033604;28;20241;-84
2021/10/30 03:47:47;;;;;;;14.30;13.00;;;7.30;63.30;;;;;;5033864;28;20184;-84
2021/10/30 03:50:12;;;;;;;17.03;13.23;;;7.40;63.80;;;;;;5034000;28;20226;-84
2021/10/30 03:52:38;;;;;;;14.43;13.03;;;7.20;63.40;;;;;;5033898;28;20430;-84
2021/10/30 03:55:05;;;;;;;14.33;13.00;;;7.00;63.60;;;;;;5033634;28;20234;-82
2021/10/30 03:57:31;;;;;;;14.43;12.90;;;7.10;64.50;;;;;;5033595;28;20188;-83
2021/10/30 03:59:57;;;;;;;14.40;12.97;;;7.20;64.80;;;;;;5033618;28;20827;-82
2021/10/30 04:02:23;;;;;;;16.10;12.80;;;7.20;64.10;;;;;;5034289;28;20179;-83
2021/10/30 04:04:48;;;;;;;15.07;13.70;;;7.20;63.90;;;;;;5034279;28;20483;-82
2021/10/30 04:07:14;;;;;;;14.90;13.50;;;7.20;65.30;;;;;;5033950;28;20270;-83
2021/10/30 04:09:39;;;;;;;15.97;14.53;;;7.20;64.10;;;;;;5034686;28;20713;-83
2021/10/30 04:12:05;;;;;;;15.47;14.03;;;7.20;64.10;;;;;;5033584;28;20191;-83
2021/10/30 04:14:31;;;;;;;16.20;14.70;;;7.20;64.70;;;;;;5033057;28;20233;-83
2021/10/30 04:16:57;;;;;;;15.10;13.60;;;7.10;64.70;;;;;;5033183;28;20891;-83
2021/10/30 04:19:22;;;;;;;15.27;13.80;;;7.10;64.60;;;;;;5032880;28;20242;-82
2021/10/30 04:21:48;;;;;;;15.40;14.10;;;7.10;65.30;;;;;;5034243;28;20178;-83
2021/10/30 04:24:14;;;;;;;14.10;12.80;;;7.00;64.80;;;;;;5032800;28;20274;-83
2021/10/30 04:26:40;;;;;;;16.07;14.03;;;7.00;65.20;;;;;;5034116;28;20283;-84
2021/10/30 04:29:06;;;;;;;16.50;14.80;;;7.10;64.60;;;;;;5033091;28;20556;-83
2021/10/30 04:31:32;;;;;;;14.50;13.00;;;7.10;64.50;;;;;;5032862;28;20453;-84
2021/10/30 04:34:01;;;;;;;14.13;12.63;;;7.10;63.60;;;;;;5032725;28;20854;-83
2021/10/30 04:36:29;;;;;;;14.13;12.77;;;7.00;63.30;;;;;;5033056;28;20479;-83
2021/10/30 04:38:56;;;;;;;15.57;14.07;;;7.00;63.30;;;;;;5032953;28;20496;-83
2021/10/30 04:41:22;;;;;;;15.37;13.87;;;7.00;63.70;;;;;;5033153;28;20412;-82
2021/10/30 04:43:48;;;;;;;14.00;12.90;;;6.90;65.10;;;;;;5033258;28;20505;-83
2021/10/30 04:46:15;;;;;;;15.53;14.13;;;6.90;64.90;;;;;;5033301;28;20415;-84
2021/10/30 04:48:45;;;;;;;15.57;14.27;;;6.80;64.40;;;;;;5033072;28;20410;-83
2021/10/30 04:51:11;;;;;;;13.40;12.00;;;6.80;65.20;;;;;;5033040;28;20429;-84
2021/10/30 04:53:40;;;;;;;15.33;13.87;;;6.80;65.30;;;;;;5034325;28;20421;-82
2021/10/30 04:56:07;;;;;;;15.60;14.23;;;6.90;66.00;;;;;;5032822;28;20505;-83
2021/10/30 04:58:34;;;;;;;16.03;13.43;;;7.00;65.80;;;;;;5032574;28;20426;-82
2021/10/30 05:01:00;;;;;;;14.90;13.53;;;7.10;64.60;;;;;;5032757;28;20796;-82
2021/10/30 05:03:26;;;;;;;13.90;12.67;;;7.00;64.40;;;;;;5032750;28;20419;-83
2021/10/30 05:05:52;;;;;;;16.03;14.27;;;6.90;64.40;;;;;;5032499;28;20433;-82
2021/10/30 05:08:18;;;;;;;15.80;14.30;;;6.90;63.40;;;;;;5032552;28;20777;-82
2021/10/30 05:10:43;;;;;;;15.40;13.93;;;6.90;64.30;;;;;;5032588;28;20430;-83
2021/10/30 05:13:09;;;;;;;15.37;14.07;;;6.90;64.70;;;;;;5032664;28;20187;-84
2021/10/30 05:15:35;;;;;;;16.37;14.87;;;6.80;65.50;;;;;;5034108;28;20739;-83
2021/10/30 05:18:01;;;;;;;15.13;13.73;;;6.90;65.00;;;;;;5032271;28;20643;-83
2021/10/30 05:20:28;;;;;;;15.77;14.30;;;6.90;65.10;;;;;;5032466;28;20454;-83
2021/10/30 05:22:55;;;;;;;14.77;13.30;;;6.90;64.40;;;;;;5032425;28;20266;-82
2021/10/30 05:25:24;;;;;;;14.77;13.43;;;6.90;64.80;;;;;;5032512;28;20780;-83
2021/10/30 05:27:49;;;;;;;14.30;12.80;;;6.90;65.90;;;;;;5032107;28;20430;-82
2021/10/30 05:30:15;;;;;;;13.53;12.33;;;6.90;64.80;;;;;;5033527;28;20412;-83
2021/10/30 05:32:41;;;;;;;14.00;12.80;;;6.80;64.00;;;;;;5032544;28;20723;-83
2021/10/30 05:35:07;;;;;;;14.90;13.40;;;6.80;64.20;;;;;;5032340;28;20434;-81
2021/10/30 05:37:33;;;;;;;13.53;12.23;;;6.90;63.80;;;;;;5031867;28;20512;-86
2021/10/30 05:39:59;;;;;;;12.80;11.70;;;6.90;64.30;;;;;;5032106;28;20470;-80
2021/10/30 05:42:25;;;;;;;14.63;13.33;;;7.00;63.10;;;;;;5031917;28;20431;-81
2021/10/30 05:44:51;;;;;;;13.53;12.20;;;7.00;62.90;;;;;;5032048;28;20453;-81
2021/10/30 05:47:18;;;;;;;15.60;13.97;;;6.90;62.60;;;;;;5032912;28;20430;-81
2021/10/30 05:49:44;;;;;;;14.60;13.30;;;6.90;62.00;;;;;;5031584;28;20421;-82
2021/10/30 05:52:14;;;;;;;14.43;13.23;;;6.80;62.30;;;;;;5031878;28;20419;-81
2021/10/30 05:54:39;;;;;;;13.43;12.23;;;6.80;63.10;;;;;;5030870;28;20530;-82
2021/10/30 05:57:13;;;;;;;13.13;11.97;;;6.80;62.20;;;;;;5031406;28;20507;-83
2021/10/30 05:59:38;;;;;;;15.20;13.80;;;6.70;62.00;;;;;;5031805;28;20224;-82
2021/10/30 06:02:05;;;;;;;13.50;12.20;;;6.70;62.80;;;;;;5031668;28;20454;-81
2021/10/30 06:04:31;;;;;;;14.47;13.10;;;6.70;63.10;;;;;;5031688;28;20277;-82
2021/10/30 06:06:57;;;;;;;15.60;14.10;;;6.70;63.40;;;;;;5031524;28;20498;-83
2021/10/30 06:09:23;;;;;;;17.40;14.93;;;6.70;63.60;;;;;;5030820;28;20275;-83
2021/10/30 06:11:49;;;;;;;14.93;12.67;;;6.70;62.80;;;;;;5031786;28;20180;-82
2021/10/30 06:14:14;;;;;;;15.33;13.83;;;6.70;62.70;;;;;;5030969;28;20488;-85
2021/10/30 06:16:40;;;;;;;13.60;12.30;;;6.70;63.00;;;;;;5031047;28;20188;-86
2021/10/30 06:19:05;;;;;;;15.10;13.60;;;6.70;63.20;;;;;;5030885;28;20226;-87
2021/10/30 06:21:31;;;;;;;15.10;13.33;;;6.70;63.20;;;;;;5031788;28;20234;-87
2021/10/30 06:24:00;;;;;;;15.50;14.00;;;6.70;62.70;;;;;;5031761;28;20184;-87
2021/10/30 06:26:27;;;;;;;14.00;12.77;;;6.60;63.20;;;;;;5031451;28;20555;-86
2021/10/30 06:28:53;;;;;;;13.97;12.67;;;6.60;63.60;;;;;;5031571;28;20512;-86
2021/10/30 06:31:20;;;;;;;14.83;13.53;;;6.70;63.40;;;;;;5032157;28;20426;-86
2021/10/30 06:33:45;;;;;;;15.07;13.80;;;6.80;63.00;;;;;;5031230;28;20938;-83
2021/10/30 06:36:11;;;;;;;13.37;12.17;;;6.80;62.50;;;;;;5032279;28;20420;-81
2021/10/30 06:38:37;;;;;;;14.17;12.67;;;6.70;63.10;;;;;;5029452;28;20563;-82
2021/10/30 06:41:05;;;;;;;15.27;13.87;;;6.70;62.50;;;;;;5030556;28;20535;-83
2021/10/30 06:43:31;;;;;;;14.87;13.47;;;6.70;62.70;;;;;;5031022;28;20582;-81
2021/10/30 06:45:57;;;;;;;16.40;14.97;;;6.60;63.00;;;;;;5030884;28;20895;-82
2021/10/30 06:48:24;;;;;;;14.43;13.00;;;6.70;63.30;;;;;;5031066;28;20425;-83
2021/10/30 06:50:50;;;;;;;13.50;12.27;;;6.60;62.60;;;;;;5030874;28;20186;-83
2021/10/30 06:53:15;;;;;;;15.33;13.70;;;6.70;63.50;;;;;;5030819;28;20474;-82
2021/10/30 06:55:43;;;;;;;14.70;13.30;;;6.70;63.20;;;;;;5031981;28;20458;-83
2021/10/30 06:58:09;;;;;;;14.93;13.63;;;6.80;63.10;;;;;;5030578;28;20183;-82
2021/10/30 07:00:35;;;;;;;15.07;13.60;;;6.80;62.40;;;;;;5030751;28;20901;-83
2021/10/30 07:03:01;;;;;;;15.57;14.07;;;6.90;62.80;;;;;;5034639;28;20421;-82
2021/10/30 07:05:27;;;;;;;15.33;13.90;;;6.90;63.30;;;;;;5035528;28;20504;-84
2021/10/30 07:07:52;;;;;;;15.33;13.20;;;7.00;62.90;;;;;;5035338;28;20176;-90
2021/10/30 07:10:18;;;;;;;15.03;13.50;;;7.10;62.80;;;;;;5034644;28;20778;-88
2021/10/30 07:12:44;;;;;;;14.93;13.43;;;7.10;61.90;;;;;;5036415;28;20657;-84
2021/10/30 07:15:12;;;;;;;14.97;13.53;;;7.10;61.90;;;;;;5035360;28;20624;-89
2021/10/30 07:17:38;;;;;;;13.43;12.33;;;7.20;60.90;;;;;;5035388;28;20513;-89
2021/10/30 07:20:05;;;;;;;14.33;12.33;;;7.30;61.80;;;;;;5035347;28;20528;-87
2021/10/30 07:22:31;;;;;;;13.20;12.00;;;7.30;60.20;;;;;;5035014;28;20425;-87
2021/10/30 07:24:58;;;;;;;13.43;12.20;;;7.30;59.90;;;;;;5035117;28;20419;-87
2021/10/30 07:27:23;;;;;;;12.80;11.70;;;7.40;60.40;;;;;;5034379;28;20425;-83
2021/10/30 07:29:51;;;;;;;13.20;12.00;;;7.50;60.50;;;;;;5034002;28;20439;-83
2021/10/30 07:32:17;;;;;;;13.13;11.83;;;7.50;59.80;;;;;;5033725;28;20271;-83
2021/10/30 07:34:43;;;;;;;13.63;12.37;;;7.60;59.40;;;;;;5034057;28;21026;-83
2021/10/30 07:37:08;;;;;;;15.70;12.53;;;7.70;59.10;;;;;;5033590;28;20273;-83
2021/10/30 07:39:35;;;;;;;13.03;11.83;;;7.70;58.30;;;;;;5033747;28;20672;-83
2021/10/30 07:42:02;;;;;;;12.90;11.60;;;7.80;58.20;;;;;;5033773;28;20271;-83
2021/10/30 07:44:28;;;;;;;13.70;12.33;;;7.80;58.00;;;;;;5033667;28;20413;-82
2021/10/30 07:46:54;;;;;;;14.13;12.30;;;7.90;57.70;;;;;;5033707;28;20465;-83
2021/10/30 07:49:19;;;;;;;14.77;12.77;;;7.90;56.70;;;;;;5033618;28;20734;-83
2021/10/30 07:51:45;;;;;;;13.93;12.73;;;7.90;56.20;;;;;;5033622;28;20181;-84
2021/10/30 07:54:11;;;;;;;13.97;10.73;;;7.90;56.40;;;;;;5033964;28;20227;-84
2021/10/30 07:56:36;;;;;;;15.63;12.77;;;7.90;56.00;;;;;;5034592;28;20264;-84
2021/10/30 07:59:02;;;;;;;13.27;12.07;;;7.90;56.50;;;;;;5033653;28;20258;-83
2021/10/30 08:01:28;;;;;;;19.90;17.70;;;8.00;56.50;;;;;;5033748;28;20204;-84
2021/10/30 08:03:54;;;;;;;17.17;15.37;;;8.00;56.60;;;;;;5034646;28;20447;-83
2021/10/30 08:06:19;;;;;;;13.97;12.60;;;8.10;56.50;;;;;;5033525;28;20184;-83
2021/10/30 08:08:45;;;;;;;13.80;12.60;;;8.10;56.90;;;;;;5033328;28;20182;-80
2021/10/30 08:11:11;;;;;;;15.27;13.33;;;8.10;55.80;;;;;;5033565;28;20177;-81
2021/10/30 08:13:37;;;;;;;12.33;11.20;;;8.10;57.20;;;;;;5033196;28;20453;-82
2021/10/30 08:16:03;;;;;;;12.53;11.37;;;8.20;56.70;;;;;;5033689;28;20173;-83
2021/10/30 08:18:28;;;;;;;13.67;12.30;;;8.20;55.90;;;;;;5033357;28;20552;-83
2021/10/30 08:20:54;;;;;;;13.57;12.27;;;8.30;55.90;;;;;;5035001;28;20495;-86
2021/10/30 08:23:20;;;;;;;15.73;13.93;;;8.40;56.00;;;;;;5033595;28;20662;-85
2021/10/30 08:25:45;;;;;;;13.10;11.37;;;8.50;57.40;;;;;;5033619;28;20517;-83
2021/10/30 08:28:11;;;;;;;12.53;11.50;;;8.50;55.90;;;;;;5033275;28;20200;-82
2021/10/30 08:30:37;;;;;;;11.87;10.70;;;8.50;54.00;;;;;;5033690;28;20618;-82
2021/10/30 08:33:02;;;;;;;12.73;11.43;;;8.50;55.00;;;;;;5033422;28;20191;-83
2021/10/30 08:35:29;;;;;;;14.23;12.83;;;8.50;54.20;;;;;;5033311;28;20181;-84
2021/10/30 08:37:55;;;;;;;11.73;10.53;;;8.60;54.70;;;;;;5033008;28;20234;-84
2021/10/30 08:40:21;;;;;;;12.90;11.63;;;8.60;54.60;;;;;;5034356;28;20463;-84
2021/10/30 08:42:50;;;;;;;13.10;11.80;;;8.60;54.60;;;;;;5033905;28;20180;-84
2021/10/30 08:45:18;;;;;;;13.60;12.30;;;8.80;54.90;;;;;;5032632;28;20187;-84
2021/10/30 08:47:47;;;;;;;13.07;11.90;;;8.80;55.30;;;;;;5032860;28;20422;-87
2021/10/30 08:50:15;;;;;;;13.53;11.90;;;8.80;54.50;;;;;;5033211;28;20515;-86
2021/10/30 08:52:40;;;;;;;12.23;11.07;;;8.90;54.60;;;;;;5033235;28;20529;-87
2021/10/30 08:55:07;;;;;;;13.93;12.73;;;9.00;53.50;;;;;;5033412;28;20450;-87
2021/10/30 08:57:34;;;;;;;11.90;10.70;;;9.10;53.60;;;;;;5033144;28;20220;-87
2021/10/30 09:00:22;;;;;;;12.03;10.83;;;9.20;54.60;;;;;;5034531;28;20465;-87
2021/10/30 09:02:57;;;;;;;13.00;11.80;;;9.30;54.10;;;;;;5033307;28;20491;-86
2021/10/30 09:05:24;;;;;;;11.87;10.87;;;9.30;53.50;;;;;;5032912;28;20425;-87
2021/10/30 09:07:58;;;;;;;18.83;15.67;;;9.20;52.10;;;;;;5032998;28;20415;-86
2021/10/30 09:10:27;;;;;;;12.37;11.10;;;9.30;53.40;;;;;;5033020;28;20518;-87
2021/10/30 09:12:57;;;;;;;13.53;12.33;;;9.40;53.50;;;;;;5032803;28;20491;-86
2021/10/30 09:15:43;;;;;;;13.30;12.03;;;9.40;53.20;;;;;;5034343;28;20410;-86
2021/10/30 09:18:36;;;;;;;13.93;12.53;;;9.50;53.30;;;;;;5032625;28;20415;-86
2021/10/30 09:21:04;;;;;;;14.17;12.87;;;9.50;53.40;;;;;;5032714;28;20420;-86
2021/10/30 09:23:36;;;;;;;12.77;11.63;;;9.50;52.70;;;;;;5032104;28;20411;-86
2021/10/30 09:26:05;;;;;;;14.03;12.57;;;9.50;52.90;;;;;;5032302;28;20411;-85
2021/10/30 09:28:36;;;;;;;13.60;12.27;;;9.50;53.20;;;;;;5032398;28;20415;-86
2021/10/30 09:31:07;;;;;;;14.30;12.80;;;9.50;54.00;;;;;;5032548;28;20408;-86
2021/10/30 09:33:34;;;;;;;14.43;13.13;;;9.50;53.60;;;;;;5030957;28;20430;-87
2021/10/30 09:36:13;;;;;;;14.67;13.10;;;9.50;53.60;;;;;;5048064;28;20820;-87
2021/10/30 09:38:42;;;;;;;13.77;12.47;;;9.50;53.70;;;;;;5011626;28;20416;-84
2021/10/30 09:41:31;;;;;;;13.67;12.27;;;9.60;54.10;;;;;;5011668;28;20440;-84
2021/10/30 09:44:03;;;;;;;15.33;13.87;;;9.60;52.90;;;;;;5051537;28;20501;-84
2021/10/30 09:46:31;;;;;;;15.07;13.47;;;9.60;53.00;;;;;;5036056;28;20466;-83
2021/10/30 09:49:12;;;;;;;48.40;34.30;;;9.50;53.20;;;;;;5037950;28;20422;-83
2021/10/30 09:51:38;;;;;;;16.43;14.53;;;9.50;52.50;;;;;;5051234;28;20410;-83
2021/10/30 09:54:06;;;;;;;14.30;12.80;;;9.50;51.90;;;;;;5029960;28;20426;-83
2021/10/30 09:56:49;;;;;;;14.97;13.43;;;9.60;52.00;;;;;;5027795;28;20474;-83
2021/10/30 09:59:18;;;;;;;15.03;13.50;;;9.50;52.60;;;;;;5047972;28;20824;-82
2021/10/30 10:01:49;;;;;;;13.73;12.53;;;9.60;52.10;;;;;;5037483;28;20414;-82
2021/10/30 10:04:17;;;;;;;14.67;13.20;;;9.60;52.00;;;;;;5047759;28;20419;-83
2021/10/30 10:06:46;;;;;;;13.17;11.97;;;9.60;52.60;;;;;;5036419;28;20411;-84
2021/10/30 10:09:13;;;;;;;14.20;12.80;;;9.60;53.40;;;;;;5041450;28;20427;-82
2021/10/30 10:11:46;;;;;;;16.73;15.13;;;9.70;54.00;;;;;;5044292;28;20774;-82
2021/10/30 10:14:14;;;;;;;16.23;14.43;;;9.80;54.00;;;;;;5033818;28;20515;-82
2021/10/30 10:16:40;;;;;;;15.60;14.03;;;9.80;54.50;;;;;;5045897;28;20434;-82
2021/10/30 10:19:06;;;;;;;15.27;13.73;;;9.80;52.60;;;;;;5039077;28;20469;-83
2021/10/30 10:21:36;;;;;;;15.83;14.20;;;9.90;53.00;;;;;;5039032;28;20415;-81
2021/10/30 10:24:17;;;;;;;15.33;13.60;;;9.90;52.50;;;;;;5046713;28;20415;-81
2021/10/30 10:26:46;;;;;;;15.30;13.90;;;9.90;52.80;;;;;;5037908;28;20414;-82
2021/10/30 10:29:38;;;;;;;14.10;12.17;;;10.00;51.40;;;;;;5041435;28;20942;-82
2021/10/30 10:32:07;;;;;;;14.97;13.57;;;10.00;50.40;;;;;;5048356;28;20812;-81
2021/10/30 10:34:35;;;;;;;15.50;13.90;;;9.90;51.70;;;;;;5034610;28;20418;-83
2021/10/30 10:37:14;;;;;;;14.53;13.23;;;10.00;51.40;;;;;;5045995;28;20477;-82
2021/10/30 10:39:59;;;;;;;16.93;15.27;;;10.00;51.40;;;;;;5047722;28;20857;-82
2021/10/30 10:42:33;;;;;;;16.60;15.00;;;10.10;51.60;;;;;;5037917;28;20772;-81
2021/10/30 10:45:07;;;;;;;15.47;13.90;;;10.10;52.00;;;;;;5046869;28;20411;-82
2021/10/30 10:47:35;;;;;;;15.37;13.90;;;10.10;51.50;;;;;;5047952;28;20418;-82
2021/10/30 10:50:21;;;;;;;16.33;13.27;;;10.10;51.50;;;;;;5038111;28;20970;-81
2021/10/30 10:53:11;;;;;;;17.50;15.80;;;10.20;51.60;;;;;;5026249;28;20426;-84
2021/10/30 10:55:46;;;;;;;14.70;13.30;;;10.20;52.40;;;;;;5043393;28;20434;-84
2021/10/30 10:58:14;;;;;;;13.20;11.90;;;10.20;51.60;;;;;;5050293;28;20421;-85
2021/10/30 11:01:02;;;;;;;15.57;12.70;;;10.20;51.60;;;;;;5038143;28;20490;-84
2021/10/30 11:03:29;;;;;;;13.73;12.40;;;10.20;52.80;;;;;;5042436;28;20407;-84
2021/10/30 11:06:03;;;;;;;17.53;13.13;;;10.20;51.60;;;;;;5049909;28;20972;-84
2021/10/30 11:08:31;;;;;;;15.10;13.63;;;10.20;52.00;;;;;;5050287;28;20411;-82
2021/10/30 11:11:22;;;;;;;13.97;12.57;;;10.20;51.20;;;;;;5041408;28;20502;-82
2021/10/30 11:13:58;;;;;;;14.03;12.80;;;10.20;51.60;;;;;;5039366;28;20479;-83
2021/10/30 11:16:38;;;;;;;15.77;14.07;;;10.20;50.60;;;;;;5036887;28;20457;-84
2021/10/30 11:19:32;;;;;;;16.37;14.90;;;10.20;50.50;;;;;;5045159;28;20459;-82
2021/10/30 11:22:12;;;;;;;15.83;12.30;;;10.20;51.00;;;;;;5049576;28;20755;-82
2021/10/30 11:24:56;;;;;;;16.73;13.00;;;10.10;51.50;;;;;;5023224;28;20777;-82
2021/10/30 11:27:21;;;;;;;15.03;13.43;;;10.10;52.30;;;;;;5042874;28;20498;-83
2021/10/30 11:29:52;;;;;;;14.37;12.90;;;10.20;52.30;;;;;;5033547;28;20531;-83
2021/10/30 11:32:19;;;;;;;14.53;13.10;;;10.20;52.80;;;;;;5050199;28;20179;-82
2021/10/30 11:34:54;;;;;;;14.13;12.43;;;10.20;52.50;;;;;;5039146;28;20418;-82
2021/10/30 11:37:20;;;;;;;14.90;13.60;;;10.30;52.50;;;;;;5042648;28;20445;-83
2021/10/30 11:39:46;;;;;;;13.80;12.47;;;10.30;52.70;;;;;;5047712;28;20461;-83
2021/10/30 11:42:12;;;;;;;13.27;12.10;;;10.40;51.80;;;;;;5052804;28;20411;-84
2021/10/30 11:44:53;;;;;;;14.13;12.73;;;10.40;52.70;;;;;;5034252;28;20427;-83
2021/10/30 11:47:29;;;;;;;14.40;13.10;;;10.40;52.10;;;;;;5033419;28;20235;-82
2021/10/30 11:49:56;;;;;;;13.60;12.20;;;10.40;52.60;;;;;;5049187;28;20418;-83
2021/10/30 11:52:24;;;;;;;13.87;12.70;;;10.40;52.20;;;;;;5035178;28;20415;-83
2021/10/30 11:54:58;;;;;;;15.17;13.70;;;10.30;52.30;;;;;;5040274;28;20465;-83
2021/10/30 11:57:24;;;;;;;14.83;13.40;;;10.40;52.10;;;;;;5042687;28;20792;-82
2021/10/30 11:59:58;;;;;;;14.50;13.03;;;10.30;51.40;;;;;;5048612;28;20458;-82
2021/10/30 12:02:23;;;;;;;17.23;13.80;;;10.20;51.90;;;;;;5037069;28;20253;-83
2021/10/30 12:04:49;;;;;;;17.80;15.93;;;10.20;53.80;;;;;;5048895;28;20971;-83
2021/10/30 12:07:15;;;;;;;19.40;15.13;;;10.20;57.90;;;;;;5044120;28;20290;-83
2021/10/30 12:09:43;;;;;;;16.23;14.63;;;10.20;60.50;;;;;;5053151;28;20180;-82
2021/10/30 12:12:19;;;;;;;15.87;14.40;;;10.10;62.30;;;;;;5035927;28;20177;-82
2021/10/30 12:14:53;;;;;;;17.63;15.73;;;10.10;61.70;;;;;;5038349;28;20563;-82
2021/10/30 12:17:23;;;;;;;16.73;15.13;;;10.00;60.30;;;;;;5042401;28;20968;-82
2021/10/30 12:19:56;;;;;;;18.30;15.10;;;9.90;60.20;;;;;;5030999;28;20821;-82
2021/10/30 12:22:27;;;;;;;19.90;15.40;;;9.90;64.30;;;;;;5045163;28;20419;-87
2021/10/30 12:25:04;;;;;;;17.90;16.10;;;9.90;65.30;;;;;;5035195;28;20415;-83
2021/10/30 12:27:32;;;;;;;17.27;15.53;;;9.90;62.60;;;;;;5033728;28;20426;-83
2021/10/30 12:30:13;;;;;;;16.87;15.30;;;9.90;64.40;;;;;;5033881;28;20477;-85
2021/10/30 12:32:44;;;;;;;17.30;15.47;;;9.80;64.10;;;;;;5033530;28;20526;-84
2021/10/30 12:35:23;;;;;;;19.23;16.37;;;9.90;66.50;;;;;;5033997;28;20920;-84
2021/10/30 12:37:50;;;;;;;17.13;15.53;;;9.90;65.80;;;;;;5032737;28;20826;-84
2021/10/30 12:40:18;;;;;;;19.03;17.23;;;9.90;65.10;;;;;;5033274;28;20985;-85